CKJ4091 ZPSM-ZBXJ
Flight info
| Callsign | CKJ4091 |
|---|---|
| Flight time | N/A |
| Altitude | 37100 |
| Route | ELASU A581 SGM W144 IGNAK W179 WFX W233 AGULU W81 APIMI W275 WJC G212 BELAX |
| Aircraft | A319/M-SDE3FGHIRWY/LB1 |
Departure
| Time | 2026-05-07 07:06 |
|---|---|
| Airport | Pu'er Simao Airport (ZPSM) |
Arrival
| Time | N/A |
|---|---|
| Airport | ZBXJ |
| Time | Latitude | Longitude | Altitude | Speed | Heading |
|---|---|---|---|---|---|
| 2026-05-07 06:46 | 22.79668 | 100.96124 | 4293 ft | 0 kts | 85° |
| 2026-05-07 06:57 | 22.79667 | 100.96114 | 4293 ft | 2 kts | 85° |
| 2026-05-07 06:57 | 22.79666 | 100.96097 | 4293 ft | 2 kts | 85° |
| 2026-05-07 06:58 | 22.79664 | 100.96081 | 4293 ft | 2 kts | 61° |
| 2026-05-07 06:58 | 22.79654 | 100.96069 | 4293 ft | 2 kts | 27° |
| 2026-05-07 06:58 | 22.79639 | 100.96065 | 4293 ft | 2 kts | 353° |
| 2026-05-07 06:58 | 22.79624 | 100.96068 | 4293 ft | 2 kts | 356° |
| 2026-05-07 06:59 | 22.79609 | 100.96069 | 4293 ft | 2 kts | 354° |
| 2026-05-07 06:59 | 22.79605 | 100.96069 | 4293 ft | 0 kts | 354° |
| 2026-05-07 07:02 | 22.79616 | 100.96068 | 4293 ft | 3 kts | 354° |
| 2026-05-07 07:02 | 22.79650 | 100.96064 | 4293 ft | 6 kts | 354° |
| 2026-05-07 07:03 | 22.79698 | 100.96044 | 4293 ft | 7 kts | 292° |
| 2026-05-07 07:03 | 22.79695 | 100.95976 | 4293 ft | 10 kts | 275° |
| 2026-05-07 07:03 | 22.79723 | 100.95895 | 4293 ft | 13 kts | 335° |
| 2026-05-07 07:03 | 22.79823 | 100.95882 | 4293 ft | 15 kts | 357° |
| 2026-05-07 07:04 | 22.79939 | 100.95873 | 4293 ft | 17 kts | 355° |
| 2026-05-07 07:04 | 22.80066 | 100.95860 | 4293 ft | 19 kts | 354° |
| 2026-05-07 07:04 | 22.80204 | 100.95845 | 4293 ft | 20 kts | 354° |
| 2026-05-07 07:04 | 22.80349 | 100.95831 | 4293 ft | 16 kts | 356° |
| 2026-05-07 07:05 | 22.80441 | 100.95807 | 4293 ft | 11 kts | 339° |
| 2026-05-07 07:05 | 22.80454 | 100.95817 | 4293 ft | 5 kts | 151° |
| 2026-05-07 07:05 | 22.80426 | 100.95824 | 4293 ft | 0 kts | 176° |
| 2026-05-07 07:05 | 22.80425 | 100.95824 | 4293 ft | 2 kts | 176° |
| 2026-05-07 07:06 | 22.80151 | 100.95850 | 4293 ft | 79 kts | 175° |
| 2026-05-07 07:06 | 22.79349 | 100.95928 | 4293 ft | 148 kts | 176° |
| 2026-05-07 07:06 | 22.78140 | 100.96029 | 4469 ft | 188 kts | 177° |
| 2026-05-07 07:06 | 22.76888 | 100.96122 | 5316 ft | 179 kts | 176° |
| 2026-05-07 07:07 | 22.75696 | 100.96246 | 6133 ft | 173 kts | 176° |
| 2026-05-07 07:07 | 22.74475 | 100.96377 | 6648 ft | 182 kts | 176° |
| 2026-05-07 07:07 | 22.73164 | 100.96513 | 7048 ft | 198 kts | 176° |
| 2026-05-07 07:07 | 22.71721 | 100.96658 | 7416 ft | 219 kts | 176° |
| 2026-05-07 07:08 | 22.70124 | 100.96815 | 7860 ft | 238 kts | 176° |
| 2026-05-07 07:08 | 22.68403 | 100.96986 | 8348 ft | 257 kts | 176° |
| 2026-05-07 07:08 | 22.66574 | 100.97183 | 8829 ft | 275 kts | 172° |
| 2026-05-07 07:08 | 22.64732 | 100.97981 | 9335 ft | 295 kts | 144° |
| 2026-05-07 07:09 | 22.63370 | 100.99651 | 10108 ft | 302 kts | 119° |
| 2026-05-07 07:09 | 22.62768 | 101.01828 | 10748 ft | 314 kts | 94° |
| 2026-05-07 07:09 | 22.63146 | 101.04205 | 11161 ft | 332 kts | 65° |
| 2026-05-07 07:09 | 22.64578 | 101.06222 | 11557 ft | 347 kts | 37° |
| 2026-05-07 07:10 | 22.66771 | 101.07320 | 12138 ft | 351 kts | 8° |
| 2026-05-07 07:10 | 22.69195 | 101.07526 | 12917 ft | 351 kts | 358° |
| 2026-05-07 07:10 | 22.71644 | 101.07526 | 13667 ft | 354 kts | 357° |
| 2026-05-07 07:10 | 22.74119 | 101.07528 | 14350 ft | 359 kts | 358° |
| 2026-05-07 07:11 | 22.76653 | 101.07572 | 15014 ft | 364 kts | 358° |
| 2026-05-07 07:11 | 22.79225 | 101.07649 | 15645 ft | 369 kts | 359° |
| 2026-05-07 07:11 | 22.81787 | 101.07746 | 16242 ft | 374 kts | 359° |
| 2026-05-07 07:11 | 22.84423 | 101.07853 | 16842 ft | 379 kts | 359° |
| 2026-05-07 07:12 | 22.87074 | 101.07976 | 17420 ft | 384 kts | 1° |
| 2026-05-07 07:12 | 22.89728 | 101.08482 | 17966 ft | 393 kts | 13° |
| 2026-05-07 07:12 | 22.92297 | 101.09576 | 18528 ft | 401 kts | 25° |
| 2026-05-07 07:12 | 22.94750 | 101.11083 | 19088 ft | 406 kts | 28° |
| 2026-05-07 07:13 | 22.97199 | 101.12688 | 19611 ft | 410 kts | 28° |
| 2026-05-07 07:13 | 22.99652 | 101.14307 | 20123 ft | 415 kts | 28° |
| 2026-05-07 07:13 | 23.02139 | 101.15939 | 20633 ft | 418 kts | 28° |
| 2026-05-07 07:13 | 23.04655 | 101.17583 | 21140 ft | 422 kts | 28° |
| 2026-05-07 07:14 | 23.07183 | 101.19227 | 21628 ft | 426 kts | 28° |
| 2026-05-07 07:14 | 23.09749 | 101.20894 | 22113 ft | 429 kts | 28° |
| 2026-05-07 07:14 | 23.12317 | 101.22560 | 22602 ft | 432 kts | 28° |
| 2026-05-07 07:14 | 23.14893 | 101.24229 | 23124 ft | 434 kts | 28° |
| 2026-05-07 07:15 | 23.17499 | 101.25919 | 23655 ft | 436 kts | 27° |
| 2026-05-07 07:15 | 23.20144 | 101.27634 | 24157 ft | 439 kts | 27° |
| 2026-05-07 07:15 | 23.22531 | 101.29182 | 24609 ft | 441 kts | 27° |
| 2026-05-07 07:15 | 23.25165 | 101.30888 | 25103 ft | 444 kts | 27° |
| 2026-05-07 07:16 | 23.27687 | 101.32526 | 25570 ft | 446 kts | 27° |
| 2026-05-07 07:16 | 23.30359 | 101.34261 | 26060 ft | 448 kts | 27° |
| 2026-05-07 07:16 | 23.33015 | 101.35987 | 26537 ft | 451 kts | 27° |
| 2026-05-07 07:16 | 23.35760 | 101.37771 | 27038 ft | 453 kts | 27° |
| 2026-05-07 07:17 | 23.38493 | 101.39548 | 27517 ft | 455 kts | 27° |
| 2026-05-07 07:17 | 23.41247 | 101.41338 | 28003 ft | 458 kts | 27° |
| 2026-05-07 07:17 | 23.43974 | 101.43115 | 28496 ft | 460 kts | 27° |
| 2026-05-07 07:17 | 23.46746 | 101.44921 | 28977 ft | 462 kts | 27° |
| 2026-05-07 07:18 | 23.49507 | 101.46720 | 29458 ft | 465 kts | 27° |
| 2026-05-07 07:18 | 23.52312 | 101.48549 | 29921 ft | 468 kts | 27° |
| 2026-05-07 07:18 | 23.55115 | 101.50378 | 30382 ft | 471 kts | 26° |
| 2026-05-07 07:18 | 23.57972 | 101.52244 | 30846 ft | 474 kts | 26° |
| 2026-05-07 07:19 | 23.60790 | 101.54083 | 31281 ft | 477 kts | 26° |
| 2026-05-07 07:19 | 23.63657 | 101.55958 | 31878 ft | 476 kts | 26° |
| 2026-05-07 07:19 | 23.66471 | 101.57799 | 32514 ft | 473 kts | 26° |
| 2026-05-07 07:19 | 23.69307 | 101.59656 | 33204 ft | 471 kts | 26° |
| 2026-05-07 07:20 | 23.72102 | 101.61483 | 33885 ft | 469 kts | 26° |
| 2026-05-07 07:20 | 23.74913 | 101.63323 | 34560 ft | 468 kts | 26° |
| 2026-05-07 07:20 | 23.77700 | 101.65146 | 35219 ft | 466 kts | 26° |
| 2026-05-07 07:20 | 23.80500 | 101.66980 | 35795 ft | 465 kts | 26° |
| 2026-05-07 07:21 | 23.83261 | 101.68788 | 36225 ft | 467 kts | 26° |
| 2026-05-07 07:21 | 23.86094 | 101.70646 | 36605 ft | 469 kts | 26° |
| 2026-05-07 07:21 | 23.88895 | 101.72486 | 36970 ft | 471 kts | 27° |
| 2026-05-07 07:21 | 23.91726 | 101.74346 | 37177 ft | 474 kts | 27° |
| 2026-05-07 07:22 | 23.96791 | 101.77679 | 37172 ft | 475 kts | 27° |
| 2026-05-07 07:22 | 24.02475 | 101.81424 | 37190 ft | 474 kts | 26° |
| 2026-05-07 07:23 | 24.08196 | 101.85207 | 37237 ft | 474 kts | 26° |
| 2026-05-07 07:23 | 24.13846 | 101.88946 | 37269 ft | 475 kts | 26° |
| 2026-05-07 07:24 | 24.19513 | 101.92700 | 37286 ft | 476 kts | 27° |
| 2026-05-07 07:24 | 24.24640 | 101.96104 | 37298 ft | 476 kts | 26° |
| 2026-05-07 07:25 | 24.33147 | 102.01754 | 37298 ft | 476 kts | 26° |
| 2026-05-07 07:26 | 24.38822 | 102.05531 | 37298 ft | 475 kts | 26° |
| 2026-05-07 07:26 | 24.44512 | 102.09319 | 37300 ft | 475 kts | 26° |
| 2026-05-07 07:27 | 24.50180 | 102.13096 | 37306 ft | 476 kts | 26° |
| 2026-05-07 07:27 | 24.55836 | 102.16869 | 37310 ft | 476 kts | 26° |
| 2026-05-07 07:28 | 24.61504 | 102.20655 | 37314 ft | 476 kts | 27° |
| 2026-05-07 07:28 | 24.67200 | 102.24464 | 37323 ft | 477 kts | 27° |
| 2026-05-07 07:29 | 24.72891 | 102.28275 | 37323 ft | 477 kts | 27° |
| 2026-05-07 07:29 | 24.78578 | 102.32088 | 37335 ft | 478 kts | 26° |
| 2026-05-07 07:30 | 24.84255 | 102.35899 | 37342 ft | 478 kts | 26° |
| 2026-05-07 07:30 | 24.89941 | 102.39716 | 37357 ft | 477 kts | 26° |
| 2026-05-07 07:31 | 24.95631 | 102.43543 | 37376 ft | 478 kts | 26° |
| 2026-05-07 07:31 | 25.01327 | 102.47378 | 37386 ft | 477 kts | 26° |
| 2026-05-07 07:32 | 25.07013 | 102.51185 | 37379 ft | 477 kts | 25° |
| 2026-05-07 07:32 | 25.12895 | 102.54549 | 37369 ft | 474 kts | 21° |
| 2026-05-07 07:33 | 25.18859 | 102.57748 | 37361 ft | 475 kts | 20° |
| 2026-05-07 07:33 | 25.24748 | 102.60913 | 37363 ft | 475 kts | 20° |
| 2026-05-07 07:34 | 25.30258 | 102.63885 | 37369 ft | 474 kts | 21° |
| 2026-05-07 07:34 | 25.36231 | 102.67114 | 37376 ft | 474 kts | 21° |
| 2026-05-07 07:35 | 25.41827 | 102.70145 | 37395 ft | 475 kts | 21° |
| 2026-05-07 07:35 | 25.47688 | 102.73322 | 37396 ft | 474 kts | 21° |
| 2026-05-07 07:36 | 25.53638 | 102.76550 | 37407 ft | 474 kts | 21° |
| 2026-05-07 07:36 | 25.59568 | 102.79771 | 37419 ft | 475 kts | 21° |
| 2026-05-07 07:37 | 25.65492 | 102.82995 | 37434 ft | 475 kts | 20° |
| 2026-05-07 07:37 | 25.71445 | 102.86236 | 37445 ft | 475 kts | 21° |
| 2026-05-07 07:38 | 25.77394 | 102.89478 | 37464 ft | 476 kts | 21° |
| 2026-05-07 07:38 | 25.83365 | 102.92736 | 37476 ft | 476 kts | 21° |
| 2026-05-07 07:39 | 25.89303 | 102.95981 | 37492 ft | 476 kts | 21° |
| 2026-05-07 07:39 | 25.95240 | 102.99229 | 37490 ft | 476 kts | 20° |
| 2026-05-07 07:40 | 26.01200 | 103.02493 | 37497 ft | 475 kts | 20° |
| 2026-05-07 07:40 | 26.07149 | 103.05753 | 37504 ft | 475 kts | 20° |
| 2026-05-07 07:41 | 26.13108 | 103.09024 | 37502 ft | 474 kts | 21° |
| 2026-05-07 07:41 | 26.19015 | 103.12271 | 37516 ft | 474 kts | 20° |
| 2026-05-07 07:42 | 26.24679 | 103.15385 | 37551 ft | 474 kts | 20° |
| 2026-05-07 07:42 | 26.30624 | 103.18662 | 37552 ft | 475 kts | 20° |
| 2026-05-07 07:43 | 26.36581 | 103.21947 | 37511 ft | 475 kts | 20° |
| 2026-05-07 07:43 | 26.42294 | 103.25101 | 37483 ft | 475 kts | 20° |
| 2026-05-07 07:44 | 26.48231 | 103.28382 | 37461 ft | 475 kts | 20° |
| 2026-05-07 07:44 | 26.54162 | 103.31676 | 37448 ft | 475 kts | 20° |
| 2026-05-07 07:45 | 26.60092 | 103.34991 | 37440 ft | 475 kts | 20° |
| 2026-05-07 07:45 | 26.66007 | 103.38303 | 37430 ft | 475 kts | 20° |
| 2026-05-07 07:46 | 26.71929 | 103.41622 | 37427 ft | 475 kts | 20° |
| 2026-05-07 07:46 | 26.77856 | 103.44936 | 37415 ft | 475 kts | 20° |
| 2026-05-07 07:47 | 26.83809 | 103.48247 | 37413 ft | 475 kts | 20° |
| 2026-05-07 07:47 | 26.89707 | 103.51537 | 37409 ft | 474 kts | 20° |
| 2026-05-07 07:48 | 26.95629 | 103.54842 | 37406 ft | 475 kts | 20° |
| 2026-05-07 07:48 | 27.01562 | 103.58158 | 37401 ft | 475 kts | 20° |
| 2026-05-07 07:49 | 27.07516 | 103.61491 | 37413 ft | 475 kts | 20° |
| 2026-05-07 07:49 | 27.13445 | 103.64815 | 37411 ft | 476 kts | 20° |
| 2026-05-07 07:50 | 27.19412 | 103.68164 | 37413 ft | 476 kts | 20° |
| 2026-05-07 07:50 | 27.24943 | 103.71272 | 37416 ft | 476 kts | 20° |
| 2026-05-07 07:51 | 27.30852 | 103.74596 | 37406 ft | 475 kts | 20° |
| 2026-05-07 07:51 | 27.36836 | 103.77817 | 37405 ft | 474 kts | 18° |
| 2026-05-07 07:52 | 27.42703 | 103.80833 | 37404 ft | 475 kts | 18° |
| 2026-05-07 07:52 | 27.48751 | 103.83979 | 37398 ft | 475 kts | 18° |
| 2026-05-07 07:53 | 27.54652 | 103.87068 | 37396 ft | 476 kts | 18° |
| 2026-05-07 07:53 | 27.60677 | 103.90227 | 37387 ft | 476 kts | 18° |
| 2026-05-07 07:54 | 27.66710 | 103.93393 | 37365 ft | 476 kts | 18° |
| 2026-05-07 07:54 | 27.72717 | 103.96549 | 37346 ft | 476 kts | 18° |
| 2026-05-07 07:55 | 27.78736 | 103.99715 | 37327 ft | 475 kts | 18° |
| 2026-05-07 07:55 | 27.84731 | 104.02871 | 37314 ft | 475 kts | 18° |
| 2026-05-07 07:56 | 27.90708 | 104.06020 | 37302 ft | 477 kts | 18° |
| 2026-05-07 07:56 | 27.96763 | 104.09218 | 37294 ft | 477 kts | 18° |
| 2026-05-07 07:57 | 28.02762 | 104.12389 | 37276 ft | 478 kts | 18° |
| 2026-05-07 07:57 | 28.08811 | 104.15595 | 37271 ft | 477 kts | 18° |
| 2026-05-07 07:58 | 28.14735 | 104.18733 | 37281 ft | 476 kts | 18° |
| 2026-05-07 07:58 | 28.20655 | 104.21876 | 37274 ft | 477 kts | 18° |
| 2026-05-07 07:59 | 28.25845 | 104.24634 | 37271 ft | 478 kts | 17° |
| 2026-05-07 07:59 | 28.31992 | 104.27747 | 37240 ft | 474 kts | 13° |
| 2026-05-07 08:00 | 28.38252 | 104.29788 | 37225 ft | 463 kts | 3° |
| 2026-05-07 08:00 | 28.44599 | 104.30624 | 37195 ft | 454 kts | 353° |
| 2026-05-07 08:01 | 28.50889 | 104.30446 | 37176 ft | 449 kts | 348° |
| 2026-05-07 08:01 | 28.57148 | 104.30061 | 37177 ft | 448 kts | 348° |
| 2026-05-07 08:02 | 28.63354 | 104.29701 | 37188 ft | 448 kts | 348° |
| 2026-05-07 08:02 | 28.69631 | 104.29355 | 37196 ft | 449 kts | 348° |
| 2026-05-07 08:03 | 28.75846 | 104.29018 | 37212 ft | 449 kts | 348° |
| 2026-05-07 08:03 | 28.82122 | 104.28679 | 37199 ft | 449 kts | 348° |
| 2026-05-07 08:04 | 28.88385 | 104.28336 | 37176 ft | 450 kts | 348° |
| 2026-05-07 08:04 | 28.94629 | 104.27994 | 37147 ft | 450 kts | 348° |
| 2026-05-07 08:05 | 29.00912 | 104.27649 | 37121 ft | 451 kts | 348° |
| 2026-05-07 08:05 | 29.07177 | 104.27303 | 37115 ft | 450 kts | 348° |
| 2026-05-07 08:06 | 29.13469 | 104.26956 | 37114 ft | 450 kts | 348° |
| 2026-05-07 08:06 | 29.19361 | 104.26630 | 37117 ft | 450 kts | 348° |
| 2026-05-07 08:07 | 29.25695 | 104.26440 | 37121 ft | 456 kts | 352° |
| 2026-05-07 08:07 | 29.31690 | 104.26949 | 37127 ft | 464 kts | 358° |
| 2026-05-07 08:08 | 29.37992 | 104.27992 | 37136 ft | 464 kts | 360° |
| 2026-05-07 08:08 | 29.44245 | 104.29071 | 37145 ft | 465 kts | 359° |
| 2026-05-07 08:09 | 29.50678 | 104.30173 | 37152 ft | 464 kts | 359° |
| 2026-05-07 08:09 | 29.57080 | 104.31265 | 37152 ft | 464 kts | 359° |
| 2026-05-07 08:10 | 29.63445 | 104.32350 | 37151 ft | 465 kts | 359° |
| 2026-05-07 08:10 | 29.69835 | 104.33441 | 37151 ft | 464 kts | 359° |
| 2026-05-07 08:11 | 29.76247 | 104.34533 | 37148 ft | 465 kts | 359° |
| 2026-05-07 08:11 | 29.82678 | 104.35633 | 37145 ft | 465 kts | 359° |
| 2026-05-07 08:12 | 29.89062 | 104.36726 | 37143 ft | 466 kts | 359° |
| 2026-05-07 08:12 | 29.95484 | 104.37826 | 37140 ft | 466 kts | 359° |
| 2026-05-07 08:13 | 30.01887 | 104.38925 | 37141 ft | 466 kts | 359° |
| 2026-05-07 08:13 | 30.08325 | 104.40032 | 37140 ft | 466 kts | 359° |
| 2026-05-07 08:14 | 30.14675 | 104.41123 | 37144 ft | 466 kts | 359° |
| 2026-05-07 08:14 | 30.20924 | 104.42201 | 37149 ft | 466 kts | 359° |
| 2026-05-07 08:15 | 30.27042 | 104.43256 | 37147 ft | 466 kts | 359° |
| 2026-05-07 08:15 | 30.33436 | 104.44360 | 37143 ft | 467 kts | 359° |
| 2026-05-07 08:16 | 30.39485 | 104.45406 | 37149 ft | 466 kts | 359° |
| 2026-05-07 08:16 | 30.45917 | 104.46518 | 37145 ft | 466 kts | 359° |
| 2026-05-07 08:17 | 30.52355 | 104.47669 | 37144 ft | 469 kts | 1° |
| 2026-05-07 08:17 | 30.58750 | 104.49588 | 37142 ft | 480 kts | 10° |
| 2026-05-07 08:18 | 30.64956 | 104.52638 | 37140 ft | 489 kts | 19° |
| 2026-05-07 08:18 | 30.70793 | 104.56720 | 37145 ft | 496 kts | 26° |
| 2026-05-07 08:19 | 30.76577 | 104.61198 | 37139 ft | 496 kts | 26° |
| 2026-05-07 08:19 | 30.82149 | 104.65775 | 37142 ft | 501 kts | 32° |
| 2026-05-07 08:20 | 30.87293 | 104.71375 | 37145 ft | 510 kts | 43° |
| 2026-05-07 08:20 | 30.91182 | 104.77061 | 37142 ft | 516 kts | 51° |
| 2026-05-07 08:21 | 30.94391 | 104.82816 | 37141 ft | 517 kts | 53° |
| 2026-05-07 08:21 | 30.98172 | 104.89794 | 37137 ft | 517 kts | 53° |
| 2026-05-07 08:22 | 31.02041 | 104.96868 | 37136 ft | 517 kts | 53° |
| 2026-05-07 08:22 | 31.05896 | 105.03876 | 37134 ft | 516 kts | 53° |
| 2026-05-07 08:23 | 31.09765 | 105.10914 | 37136 ft | 516 kts | 53° |
| 2026-05-07 08:23 | 31.13576 | 105.17860 | 37140 ft | 516 kts | 53° |
| 2026-05-07 08:24 | 31.17173 | 105.24429 | 37138 ft | 515 kts | 53° |
| 2026-05-07 08:24 | 31.20727 | 105.30935 | 37140 ft | 515 kts | 53° |
| 2026-05-07 08:25 | 31.24353 | 105.37540 | 37146 ft | 514 kts | 52° |
| 2026-05-07 08:25 | 31.28233 | 105.44299 | 37151 ft | 514 kts | 51° |
| 2026-05-07 08:26 | 31.34217 | 105.54699 | 37161 ft | 514 kts | 51° |
| 2026-05-07 08:26 | 31.38176 | 105.61630 | 37164 ft | 515 kts | 51° |
| 2026-05-07 08:27 | 31.42156 | 105.68614 | 37157 ft | 514 kts | 52° |
| 2026-05-07 08:27 | 31.46120 | 105.75588 | 37162 ft | 514 kts | 52° |
| 2026-05-07 08:28 | 31.49606 | 105.81726 | 37160 ft | 515 kts | 52° |
| 2026-05-07 08:28 | 31.53399 | 105.88424 | 37165 ft | 515 kts | 52° |
| 2026-05-07 08:29 | 31.57344 | 105.95403 | 37166 ft | 515 kts | 52° |
| 2026-05-07 08:29 | 31.61312 | 106.02434 | 37164 ft | 515 kts | 52° |
| 2026-05-07 08:30 | 31.65231 | 106.09379 | 37169 ft | 514 kts | 52° |
| 2026-05-07 08:30 | 31.69185 | 106.16408 | 37178 ft | 514 kts | 52° |
| 2026-05-07 08:31 | 31.73102 | 106.23373 | 37179 ft | 515 kts | 52° |
| 2026-05-07 08:31 | 31.77039 | 106.30401 | 37180 ft | 514 kts | 52° |
| 2026-05-07 08:32 | 31.80959 | 106.37402 | 37187 ft | 515 kts | 52° |
| 2026-05-07 08:32 | 31.84903 | 106.44466 | 37190 ft | 515 kts | 52° |
| 2026-05-07 08:33 | 31.88815 | 106.51479 | 37192 ft | 515 kts | 52° |
| 2026-05-07 08:33 | 31.92729 | 106.58503 | 37194 ft | 515 kts | 52° |
| 2026-05-07 08:34 | 31.96650 | 106.65562 | 37197 ft | 514 kts | 52° |
| 2026-05-07 08:34 | 32.00441 | 106.72398 | 37195 ft | 515 kts | 52° |
| 2026-05-07 08:35 | 32.04359 | 106.79476 | 37201 ft | 515 kts | 52° |
| 2026-05-07 08:35 | 32.07767 | 106.85651 | 37216 ft | 514 kts | 52° |
| 2026-05-07 08:36 | 32.11318 | 106.92093 | 37228 ft | 513 kts | 52° |
| 2026-05-07 08:36 | 32.15205 | 106.99146 | 37236 ft | 513 kts | 52° |
| 2026-05-07 08:37 | 32.18363 | 107.04893 | 37241 ft | 514 kts | 52° |
| 2026-05-07 08:37 | 32.22232 | 107.11945 | 37241 ft | 514 kts | 52° |
| 2026-05-07 08:38 | 32.25787 | 107.19050 | 37244 ft | 518 kts | 59° |
| 2026-05-07 08:38 | 32.28656 | 107.26878 | 37250 ft | 522 kts | 66° |
| 2026-05-07 08:39 | 32.31099 | 107.34923 | 37259 ft | 522 kts | 67° |
| 2026-05-07 08:39 | 32.33528 | 107.42966 | 37265 ft | 521 kts | 67° |
| 2026-05-07 08:40 | 32.35977 | 107.50990 | 37265 ft | 521 kts | 66° |
| 2026-05-07 08:40 | 32.38448 | 107.59064 | 37260 ft | 521 kts | 66° |
| 2026-05-07 08:41 | 32.40889 | 107.67062 | 37249 ft | 521 kts | 67° |
| 2026-05-07 08:41 | 32.43355 | 107.75165 | 37249 ft | 521 kts | 67° |
| 2026-05-07 08:42 | 32.45657 | 107.82752 | 37258 ft | 522 kts | 67° |
| 2026-05-07 08:42 | 32.48049 | 107.90656 | 37276 ft | 522 kts | 66° |
| 2026-05-07 08:43 | 32.51414 | 107.98006 | 37280 ft | 508 kts | 46° |
| 2026-05-07 08:43 | 32.53786 | 108.01040 | 37284 ft | 498 kts | 34° |
| 2026-05-07 08:43 | 32.56510 | 108.03532 | 37285 ft | 488 kts | 24° |
| 2026-05-07 08:44 | 32.59464 | 108.05428 | 37285 ft | 475 kts | 14° |
| 2026-05-07 08:44 | 32.62511 | 108.06737 | 37287 ft | 467 kts | 7° |
| 2026-05-07 08:44 | 32.68744 | 108.08864 | 37271 ft | 467 kts | 6° |
| 2026-05-07 08:45 | 32.75037 | 108.11015 | 37269 ft | 468 kts | 7° |
| 2026-05-07 08:45 | 32.81282 | 108.13210 | 37268 ft | 467 kts | 7° |
| 2026-05-07 08:46 | 32.87498 | 108.15421 | 37270 ft | 468 kts | 7° |
| 2026-05-07 08:46 | 32.93749 | 108.17652 | 37276 ft | 468 kts | 7° |
| 2026-05-07 08:47 | 32.99971 | 108.19873 | 37273 ft | 468 kts | 7° |
| 2026-05-07 08:47 | 33.06232 | 108.22115 | 37285 ft | 469 kts | 7° |
| 2026-05-07 08:48 | 33.12167 | 108.24243 | 37307 ft | 468 kts | 7° |
| 2026-05-07 08:48 | 33.18400 | 108.26483 | 37323 ft | 468 kts | 7° |
| 2026-05-07 08:49 | 33.23613 | 108.28355 | 37327 ft | 467 kts | 7° |
| 2026-05-07 08:49 | 33.29311 | 108.30405 | 37336 ft | 467 kts | 7° |
| 2026-05-07 08:50 | 33.35243 | 108.32707 | 37360 ft | 470 kts | 9° |
| 2026-05-07 08:50 | 33.41182 | 108.35204 | 37359 ft | 471 kts | 10° |
| 2026-05-07 08:51 | 33.47369 | 108.37817 | 37370 ft | 471 kts | 10° |
| 2026-05-07 08:51 | 33.53525 | 108.40417 | 37364 ft | 469 kts | 10° |
| 2026-05-07 08:52 | 33.59715 | 108.43028 | 37377 ft | 469 kts | 10° |
| 2026-05-07 08:52 | 33.65852 | 108.45620 | 37372 ft | 469 kts | 10° |
| 2026-05-07 08:53 | 33.71979 | 108.48210 | 37391 ft | 468 kts | 10° |
| 2026-05-07 08:53 | 33.78149 | 108.50824 | 37394 ft | 469 kts | 10° |
| 2026-05-07 08:54 | 33.84301 | 108.53436 | 37406 ft | 468 kts | 10° |
| 2026-05-07 08:54 | 33.90458 | 108.56049 | 37402 ft | 468 kts | 10° |
| 2026-05-07 08:55 | 33.96613 | 108.58671 | 37396 ft | 467 kts | 10° |
| 2026-05-07 08:55 | 34.02729 | 108.61278 | 37395 ft | 467 kts | 10° |
| 2026-05-07 08:56 | 34.08851 | 108.63889 | 37384 ft | 466 kts | 10° |
| 2026-05-07 08:56 | 34.14989 | 108.66512 | 37365 ft | 468 kts | 11° |
| 2026-05-07 08:57 | 34.20931 | 108.69056 | 37346 ft | 469 kts | 11° |
| 2026-05-07 08:57 | 34.26951 | 108.71640 | 37332 ft | 466 kts | 11° |
| 2026-05-07 08:58 | 34.32995 | 108.74232 | 37332 ft | 469 kts | 11° |
| 2026-05-07 08:58 | 34.39009 | 108.76821 | 37330 ft | 467 kts | 11° |
| 2026-05-07 08:59 | 34.44950 | 108.79378 | 37323 ft | 466 kts | 11° |
| 2026-05-07 08:59 | 34.50946 | 108.81969 | 37326 ft | 467 kts | 11° |
| 2026-05-07 09:00 | 34.57180 | 108.84663 | 37321 ft | 468 kts | 11° |
| 2026-05-07 09:00 | 34.63312 | 108.87318 | 37315 ft | 467 kts | 11° |
| 2026-05-07 09:01 | 34.69446 | 108.89980 | 37323 ft | 466 kts | 11° |
| 2026-05-07 09:01 | 34.75570 | 108.92639 | 37320 ft | 466 kts | 11° |
| 2026-05-07 09:02 | 34.81672 | 108.95296 | 37316 ft | 466 kts | 11° |
| 2026-05-07 09:02 | 34.87794 | 108.97961 | 37325 ft | 468 kts | 11° |
| 2026-05-07 09:03 | 34.93878 | 109.00620 | 37339 ft | 466 kts | 11° |
| 2026-05-07 09:03 | 34.99999 | 109.03294 | 37345 ft | 467 kts | 11° |
| 2026-05-07 09:04 | 35.06140 | 109.05981 | 37343 ft | 468 kts | 11° |
| 2026-05-07 09:04 | 35.12157 | 109.08624 | 37364 ft | 466 kts | 10° |
| 2026-05-07 09:05 | 35.18233 | 109.11293 | 37359 ft | 464 kts | 10° |
| 2026-05-07 09:05 | 35.23091 | 109.13429 | 37366 ft | 464 kts | 10° |
| 2026-05-07 09:06 | 35.29351 | 109.16186 | 37375 ft | 465 kts | 10° |
| 2026-05-07 09:06 | 35.35434 | 109.18868 | 37371 ft | 464 kts | 10° |
| 2026-05-07 09:07 | 35.41501 | 109.21551 | 37363 ft | 462 kts | 10° |
| 2026-05-07 09:07 | 35.47538 | 109.24223 | 37359 ft | 463 kts | 10° |
| 2026-05-07 09:08 | 35.53592 | 109.26907 | 37353 ft | 461 kts | 10° |
| 2026-05-07 09:08 | 35.59617 | 109.29583 | 37354 ft | 461 kts | 10° |
| 2026-05-07 09:09 | 35.65633 | 109.32256 | 37363 ft | 462 kts | 10° |
| 2026-05-07 09:09 | 35.71653 | 109.35125 | 37353 ft | 468 kts | 16° |
| 2026-05-07 09:10 | 35.77301 | 109.39331 | 37352 ft | 481 kts | 28° |
| 2026-05-07 09:10 | 35.82229 | 109.45040 | 37349 ft | 496 kts | 42° |
| 2026-05-07 09:11 | 35.86384 | 109.51872 | 37359 ft | 500 kts | 47° |
| 2026-05-07 09:11 | 35.90369 | 109.58823 | 37361 ft | 499 kts | 47° |
| 2026-05-07 09:12 | 35.94409 | 109.65789 | 37359 ft | 499 kts | 47° |
| 2026-05-07 09:12 | 35.98461 | 109.72739 | 37370 ft | 499 kts | 46° |
| 2026-05-07 09:13 | 36.02412 | 109.79519 | 37346 ft | 500 kts | 47° |
| 2026-05-07 09:13 | 36.04333 | 109.82817 | 37506 ft | 500 kts | 47° |
| 2026-05-07 09:13 | 36.06361 | 109.86307 | 37415 ft | 499 kts | 47° |
| 2026-05-07 09:14 | 36.10402 | 109.93264 | 37373 ft | 499 kts | 47° |
| 2026-05-07 09:14 | 36.14316 | 110.00022 | 37359 ft | 499 kts | 47° |
| 2026-05-07 09:15 | 36.18370 | 110.07034 | 37358 ft | 500 kts | 47° |
| 2026-05-07 09:15 | 36.22385 | 110.13996 | 37353 ft | 499 kts | 47° |
| 2026-05-07 09:16 | 36.26304 | 110.20811 | 37359 ft | 497 kts | 46° |
| 2026-05-07 09:16 | 36.30320 | 110.27795 | 37347 ft | 500 kts | 47° |
| 2026-05-07 09:17 | 36.34333 | 110.34799 | 37344 ft | 498 kts | 47° |
| 2026-05-07 09:17 | 36.38334 | 110.41791 | 37342 ft | 498 kts | 47° |
| 2026-05-07 09:18 | 36.42345 | 110.48811 | 37330 ft | 501 kts | 47° |
| 2026-05-07 09:18 | 36.46357 | 110.55864 | 37328 ft | 501 kts | 46° |
| 2026-05-07 09:19 | 36.50369 | 110.62917 | 37327 ft | 500 kts | 46° |
| 2026-05-07 09:19 | 36.54342 | 110.69920 | 37344 ft | 503 kts | 47° |
| 2026-05-07 09:20 | 36.58365 | 110.77029 | 37352 ft | 503 kts | 47° |
| 2026-05-07 09:20 | 36.62155 | 110.83740 | 37360 ft | 503 kts | 47° |
| 2026-05-07 09:21 | 36.65241 | 110.89214 | 37363 ft | 504 kts | 47° |
| 2026-05-07 09:21 | 36.69268 | 110.96366 | 37370 ft | 504 kts | 47° |
| 2026-05-07 09:22 | 36.73569 | 111.03155 | 37361 ft | 496 kts | 39° |
| 2026-05-07 09:22 | 36.78161 | 111.09518 | 37355 ft | 497 kts | 38° |
| 2026-05-07 09:23 | 36.82789 | 111.15883 | 37359 ft | 497 kts | 39° |
| 2026-05-07 09:23 | 36.87415 | 111.22298 | 37357 ft | 499 kts | 38° |
| 2026-05-07 09:24 | 36.92047 | 111.28751 | 37358 ft | 499 kts | 38° |
| 2026-05-07 09:24 | 36.96678 | 111.35216 | 37353 ft | 498 kts | 38° |
| 2026-05-07 09:25 | 37.01285 | 111.41650 | 37341 ft | 500 kts | 38° |
| 2026-05-07 09:25 | 37.05911 | 111.48141 | 37335 ft | 500 kts | 38° |
| 2026-05-07 09:26 | 37.10543 | 111.54642 | 37326 ft | 500 kts | 38° |
| 2026-05-07 09:26 | 37.15142 | 111.61116 | 37328 ft | 499 kts | 38° |
| 2026-05-07 09:27 | 37.19782 | 111.67655 | 37316 ft | 501 kts | 38° |
| 2026-05-07 09:28 | 37.26333 | 111.77962 | 37302 ft | 514 kts | 48° |
| 2026-05-07 09:28 | 37.29688 | 111.85285 | 37307 ft | 522 kts | 54° |
| 2026-05-07 09:29 | 37.32834 | 111.93127 | 37312 ft | 522 kts | 54° |
| 2026-05-07 09:29 | 37.36126 | 112.01253 | 37304 ft | 523 kts | 54° |
| 2026-05-07 09:30 | 37.39436 | 112.09383 | 37306 ft | 521 kts | 54° |
| 2026-05-07 09:30 | 37.42710 | 112.17442 | 37303 ft | 520 kts | 54° |
| 2026-05-07 09:31 | 37.46014 | 112.25571 | 37302 ft | 521 kts | 54° |
| 2026-05-07 09:31 | 37.49290 | 112.33672 | 37293 ft | 521 kts | 54° |
| 2026-05-07 09:32 | 37.52576 | 112.41814 | 37301 ft | 521 kts | 53° |
| 2026-05-07 09:32 | 37.55850 | 112.49948 | 37125 ft | 521 kts | 53° |
| 2026-05-07 09:32 | 37.57482 | 112.54013 | 37380 ft | 522 kts | 53° |
| 2026-05-07 09:33 | 37.59120 | 112.58082 | 37242 ft | 523 kts | 53° |
| 2026-05-07 09:33 | 37.62337 | 112.66113 | 37293 ft | 521 kts | 53° |
| 2026-05-07 09:34 | 37.65606 | 112.74270 | 37306 ft | 523 kts | 53° |
| 2026-05-07 09:34 | 37.68860 | 112.82407 | 37307 ft | 523 kts | 53° |
| 2026-05-07 09:35 | 37.71442 | 112.88881 | 37315 ft | 523 kts | 53° |
| 2026-05-07 09:35 | 37.74703 | 112.97084 | 37309 ft | 521 kts | 53° |
| 2026-05-07 09:36 | 37.77945 | 113.05257 | 37294 ft | 521 kts | 53° |
| 2026-05-07 09:36 | 37.81165 | 113.13399 | 37304 ft | 519 kts | 53° |
| 2026-05-07 09:37 | 37.84395 | 113.21587 | 37313 ft | 521 kts | 53° |
| 2026-05-07 09:37 | 37.87602 | 113.29743 | 37289 ft | 521 kts | 53° |
| 2026-05-07 09:38 | 37.90821 | 113.37955 | 37294 ft | 518 kts | 53° |
| 2026-05-07 09:38 | 37.94022 | 113.46122 | 37282 ft | 521 kts | 53° |
| 2026-05-07 09:39 | 37.97228 | 113.54349 | 37281 ft | 522 kts | 53° |
| 2026-05-07 09:39 | 38.00405 | 113.62539 | 37281 ft | 521 kts | 53° |
| 2026-05-07 09:40 | 38.03587 | 113.70759 | 37264 ft | 521 kts | 54° |
| 2026-05-07 09:40 | 38.06757 | 113.78982 | 37250 ft | 520 kts | 53° |
| 2026-05-07 09:41 | 38.09527 | 113.86184 | 37243 ft | 519 kts | 53° |
| 2026-05-07 09:41 | 38.12626 | 113.94254 | 37237 ft | 520 kts | 54° |
| 2026-05-07 09:42 | 38.15722 | 114.02357 | 37224 ft | 521 kts | 54° |
| 2026-05-07 09:42 | 38.18867 | 114.10608 | 37226 ft | 518 kts | 53° |
| 2026-05-07 09:43 | 38.22017 | 114.18839 | 37217 ft | 516 kts | 53° |
| 2026-05-07 09:43 | 38.25088 | 114.26865 | 37204 ft | 517 kts | 54° |
| 2026-05-07 09:44 | 38.28209 | 114.35046 | 37200 ft | 517 kts | 54° |
| 2026-05-07 09:44 | 38.31319 | 114.43238 | 37199 ft | 516 kts | 54° |
| 2026-05-07 09:45 | 38.34430 | 114.51444 | 37192 ft | 515 kts | 54° |
| 2026-05-07 09:45 | 38.37540 | 114.59669 | 37200 ft | 516 kts | 54° |
| 2026-05-07 09:46 | 38.40628 | 114.67863 | 37190 ft | 513 kts | 55° |
| 2026-05-07 09:46 | 38.43718 | 114.76103 | 37188 ft | 516 kts | 55° |
| 2026-05-07 09:47 | 38.46791 | 114.84325 | 37197 ft | 515 kts | 55° |
| 2026-05-07 09:47 | 38.49624 | 114.91910 | 37168 ft | 514 kts | 55° |
| 2026-05-07 09:48 | 38.52688 | 115.00134 | 37187 ft | 513 kts | 56° |
| 2026-05-07 09:48 | 38.55748 | 115.08369 | 37182 ft | 513 kts | 56° |
| 2026-05-07 09:49 | 38.58766 | 115.16568 | 37180 ft | 513 kts | 56° |
| 2026-05-07 09:49 | 38.61778 | 115.24779 | 37167 ft | 511 kts | 56° |
| 2026-05-07 09:50 | 38.64817 | 115.33021 | 37167 ft | 513 kts | 56° |
| 2026-05-07 09:50 | 38.67822 | 115.41217 | 37164 ft | 511 kts | 56° |
| 2026-05-07 09:51 | 38.70818 | 115.49401 | 37157 ft | 511 kts | 56° |
| 2026-05-07 09:51 | 38.74038 | 115.57462 | 37176 ft | 507 kts | 52° |
| 2026-05-07 09:52 | 38.77401 | 115.65243 | 37154 ft | 505 kts | 52° |
| 2026-05-07 09:52 | 38.80815 | 115.73152 | 37150 ft | 506 kts | 53° |
| 2026-05-07 09:53 | 38.84011 | 115.80602 | 37141 ft | 505 kts | 53° |
| 2026-05-07 09:53 | 38.87448 | 115.88645 | 37143 ft | 506 kts | 53° |
| 2026-05-07 09:54 | 38.90819 | 115.96564 | 37154 ft | 505 kts | 53° |
| 2026-05-07 09:54 | 38.94175 | 116.04464 | 37152 ft | 505 kts | 53° |
| 2026-05-07 09:55 | 38.97528 | 116.12375 | 37171 ft | 505 kts | 53° |
| 2026-05-07 09:55 | 39.00879 | 116.20301 | 37149 ft | 505 kts | 53° |
| 2026-05-07 09:56 | 39.04390 | 116.27992 | 37133 ft | 489 kts | 40° |
| 2026-05-07 09:56 | 39.06906 | 116.30751 | 37138 ft | 460 kts | 19° |
| 2026-05-07 09:56 | 39.09748 | 116.32121 | 37149 ft | 430 kts | 359° |
| 2026-05-07 09:56 | 39.12656 | 116.32068 | 37156 ft | 401 kts | 338° |
| 2026-05-07 09:57 | 39.15274 | 116.30991 | 37173 ft | 397 kts | 333° |
| 2026-05-07 09:57 | 39.20456 | 116.29180 | 37161 ft | 410 kts | 340° |
| 2026-05-07 09:58 | 39.25419 | 116.28155 | 37160 ft | 413 kts | 343° |
| 2026-05-07 09:58 | 39.31097 | 116.27363 | 37162 ft | 419 kts | 345° |
| 2026-05-07 09:59 | 39.36776 | 116.26724 | 37202 ft | 418 kts | 346° |
| 2026-05-07 09:59 | 39.42582 | 116.26122 | 37176 ft | 417 kts | 346° |
| 2026-05-07 10:00 | 39.48386 | 116.25534 | 37170 ft | 420 kts | 346° |
| 2026-05-07 10:00 | 39.54243 | 116.24944 | 37170 ft | 419 kts | 346° |
| 2026-05-07 10:01 | 39.60052 | 116.24357 | 37167 ft | 419 kts | 347° |
| 2026-05-07 10:01 | 39.65930 | 116.24468 | 37156 ft | 443 kts | 5° |
| 2026-05-07 10:02 | 39.71845 | 116.26818 | 37164 ft | 439 kts | 7° |
| 2026-05-07 10:02 | 39.74726 | 116.27709 | 37150 ft | 407 kts | 355° |
| 2026-05-07 10:02 | 39.77433 | 116.27670 | 37163 ft | 379 kts | 346° |
| 2026-05-07 10:02 | 39.79984 | 116.27340 | 37159 ft | 362 kts | 344° |
| 2026-05-07 10:03 | 39.82470 | 116.27024 | 37159 ft | 348 kts | 345° |
| 2026-05-07 10:03 | 39.84832 | 116.26772 | 37155 ft | 337 kts | 345° |
| 2026-05-07 10:03 | 39.87149 | 116.26550 | 37158 ft | 336 kts | 346° |
| 2026-05-07 10:04 | 39.91809 | 116.26099 | 37159 ft | 334 kts | 345° |
| 2026-05-07 10:04 | 39.96443 | 116.25629 | 37159 ft | 335 kts | 345° |
| 2026-05-07 10:05 | 40.01078 | 116.25148 | 37161 ft | 334 kts | 345° |
| 2026-05-07 10:05 | 40.05714 | 116.24648 | 37166 ft | 334 kts | 345° |
| 2026-05-07 10:06 | 40.10330 | 116.24131 | 37168 ft | 334 kts | 345° |
| 2026-05-07 10:06 | 40.14784 | 116.23634 | 37174 ft | 334 kts | 345° |
| 2026-05-07 10:07 | 40.19220 | 116.23113 | 37178 ft | 333 kts | 345° |
| 2026-05-07 10:07 | 40.23828 | 116.22569 | 37182 ft | 333 kts | 345° |
| 2026-05-07 10:08 | 40.28356 | 116.22021 | 37183 ft | 333 kts | 346° |
| 2026-05-07 10:08 | 40.32953 | 116.21426 | 37195 ft | 332 kts | 345° |
| 2026-05-07 10:09 | 40.37558 | 116.20818 | 37204 ft | 332 kts | 345° |
| 2026-05-07 10:09 | 40.42136 | 116.20212 | 37209 ft | 332 kts | 345° |
| 2026-05-07 10:10 | 40.46735 | 116.19582 | 37218 ft | 330 kts | 345° |
| 2026-05-07 10:10 | 40.51276 | 116.18935 | 37218 ft | 329 kts | 345° |
| 2026-05-07 10:11 | 40.55853 | 116.18272 | 37222 ft | 330 kts | 345° |
| 2026-05-07 10:11 | 40.60402 | 116.17597 | 37227 ft | 330 kts | 345° |
| 2026-05-07 10:12 | 40.64961 | 116.16908 | 37226 ft | 329 kts | 345° |
| 2026-05-07 10:12 | 40.69519 | 116.16217 | 37229 ft | 329 kts | 345° |
| 2026-05-07 10:13 | 40.74062 | 116.15517 | 37226 ft | 330 kts | 345° |
| 2026-05-07 10:13 | 40.78624 | 116.14812 | 37226 ft | 330 kts | 345° |
| 2026-05-07 10:14 | 40.83175 | 116.14075 | 37233 ft | 329 kts | 345° |
| 2026-05-07 10:14 | 40.87720 | 116.13322 | 37232 ft | 329 kts | 345° |
| 2026-05-07 10:15 | 40.92235 | 116.12563 | 37241 ft | 329 kts | 345° |
| 2026-05-07 10:15 | 40.96758 | 116.11807 | 37237 ft | 328 kts | 345° |
| 2026-05-07 10:16 | 41.01254 | 116.11031 | 37240 ft | 326 kts | 345° |
| 2026-05-07 10:16 | 41.05776 | 116.10240 | 37243 ft | 326 kts | 345° |
| 2026-05-07 10:17 | 41.10187 | 116.09450 | 37249 ft | 327 kts | 345° |
| 2026-05-07 10:17 | 41.14698 | 116.08632 | 37247 ft | 327 kts | 345° |
| 2026-05-07 10:18 | 41.19208 | 116.07793 | 37247 ft | 327 kts | 345° |
| 2026-05-07 10:18 | 41.23227 | 116.07053 | 37254 ft | 327 kts | 345° |
| 2026-05-07 10:19 | 41.27594 | 116.06252 | 37248 ft | 326 kts | 345° |
| 2026-05-07 10:19 | 41.32090 | 116.05418 | 37252 ft | 326 kts | 345° |
| 2026-05-07 10:20 | 41.36564 | 116.04569 | 37253 ft | 324 kts | 345° |
| 2026-05-07 10:20 | 41.41039 | 116.03722 | 37245 ft | 325 kts | 345° |
| 2026-05-07 10:21 | 41.45495 | 116.02863 | 37257 ft | 323 kts | 345° |
| 2026-05-07 10:21 | 41.49937 | 116.02002 | 37251 ft | 324 kts | 345° |
| 2026-05-07 10:22 | 41.54399 | 116.01144 | 37252 ft | 324 kts | 345° |
| 2026-05-07 10:22 | 41.58864 | 116.00283 | 37252 ft | 324 kts | 345° |
| 2026-05-07 10:23 | 41.63296 | 115.99419 | 37246 ft | 323 kts | 345° |
| 2026-05-07 10:23 | 41.67762 | 115.98531 | 37255 ft | 324 kts | 345° |
| 2026-05-07 10:24 | 41.72192 | 115.97649 | 37258 ft | 323 kts | 345° |
| 2026-05-07 10:24 | 41.76622 | 115.96757 | 37254 ft | 322 kts | 345° |
| 2026-05-07 10:25 | 41.81065 | 115.95851 | 37263 ft | 321 kts | 345° |
| 2026-05-07 10:25 | 41.85469 | 115.94960 | 37260 ft | 322 kts | 345° |
| 2026-05-07 10:26 | 41.89886 | 115.94051 | 37270 ft | 322 kts | 345° |
| 2026-05-07 10:26 | 41.94321 | 115.93117 | 37261 ft | 322 kts | 345° |
| 2026-05-07 10:27 | 41.98722 | 115.92210 | 37260 ft | 322 kts | 345° |
| 2026-05-07 10:27 | 42.03141 | 115.91296 | 37271 ft | 322 kts | 345° |
| 2026-05-07 10:28 | 42.07594 | 115.90370 | 37274 ft | 322 kts | 345° |
| 2026-05-07 10:28 | 42.11971 | 115.89445 | 37279 ft | 322 kts | 345° |
| 2026-05-07 10:29 | 42.16161 | 115.88557 | 37278 ft | 322 kts | 345° |
| 2026-05-07 10:29 | 42.20352 | 115.87656 | 37273 ft | 320 kts | 345° |
| 2026-05-07 10:30 | 42.26826 | 115.86248 | 37271 ft | 320 kts | 345° |
| 2026-05-07 10:30 | 42.31163 | 115.85300 | 37275 ft | 321 kts | 345° |
| 2026-05-07 10:31 | 42.35564 | 115.84318 | 37272 ft | 321 kts | 345° |
| 2026-05-07 10:31 | 42.39969 | 115.83333 | 37270 ft | 320 kts | 345° |
| 2026-05-07 10:32 | 42.44356 | 115.82334 | 37264 ft | 320 kts | 345° |
| 2026-05-07 10:32 | 42.48749 | 115.81338 | 37261 ft | 320 kts | 345° |
| 2026-05-07 10:33 | 42.53135 | 115.80356 | 37259 ft | 320 kts | 345° |
| 2026-05-07 10:33 | 42.57524 | 115.79356 | 37251 ft | 320 kts | 345° |
| 2026-05-07 10:34 | 42.61916 | 115.78340 | 37250 ft | 320 kts | 345° |
| 2026-05-07 10:34 | 42.66319 | 115.77317 | 37249 ft | 320 kts | 345° |
| 2026-05-07 10:35 | 42.70710 | 115.76288 | 37245 ft | 320 kts | 345° |
| 2026-05-07 10:35 | 42.75088 | 115.75250 | 37249 ft | 320 kts | 345° |
| 2026-05-07 10:36 | 42.79509 | 115.74195 | 37252 ft | 321 kts | 345° |
| 2026-05-07 10:36 | 42.83894 | 115.73145 | 37250 ft | 320 kts | 345° |
| 2026-05-07 10:37 | 42.88256 | 115.72073 | 37249 ft | 320 kts | 345° |
| 2026-05-07 10:37 | 42.92668 | 115.70997 | 37243 ft | 321 kts | 345° |
| 2026-05-07 10:38 | 42.97059 | 115.69943 | 37243 ft | 321 kts | 345° |